TAF and METAR

METAR for Yonaguni Airport

ROYN 290300Z AUTO 06009KT 9999 FEW008 BKN200 29/26 Q1011
Report created 29. mai 05:00
report generated by an automatic observation system. wind 9 knots from ENE (060°) visibility > 10km some clouds (~25% cover) at 800 feet broken clouds (~75% cover) at 20000 feet Temperature 29° with dewpoint at 26° (Humidity 83.94%) Pressure 1011 hPa
No TAF available for Yonaguni Airport